Time;durP1;ratioP1;P1;durP2;ratioP2;P2;SDS_P1;SDS_P2;PMS_P1;PMS_P2;Temp;Humidity;BMP_temperature;BMP_pressure;BME280_temperature;BME280_humidity;BME280_pressure;Samples;Min_cycle;Max_cycle;Signal;HPM_P1;HPM_P2
2023/06/08 00:02:06;;;;;;;34.42;15.40;;;;;;;-144.87;100.00;61487.56;4996476;28;20046;-70
2023/06/08 00:04:33;;;;;;;33.78;15.38;;;;;;;-144.87;100.00;61487.56;4997184;28;20033;-71
2023/06/08 00:07:00;;;;;;;35.00;16.25;;;;;;;-144.87;100.00;61487.56;4997445;28;20026;-70
2023/06/08 00:09:26;;;;;;;40.25;16.13;;;;;;;-144.87;100.00;61487.56;4969991;28;20053;-71
2023/06/08 00:11:55;;;;;;;39.05;16.92;;;;;;;-144.87;100.00;61487.56;4983586;28;20053;-70
2023/06/08 00:14:21;;;;;;;38.20;16.48;;;;;;;-144.87;100.00;61487.56;4995754;28;20035;-71
2023/06/08 00:16:48;;;;;;;38.58;16.98;;;;;;;-144.87;100.00;61487.56;4972419;28;20026;-71
2023/06/08 00:19:15;;;;;;;36.03;16.63;;;;;;;-144.87;100.00;61487.56;5001406;28;20046;-72
2023/06/08 00:21:43;;;;;;;37.10;16.75;;;;;;;-144.87;100.00;61487.56;4987687;28;20039;-72
2023/06/08 00:24:10;;;;;;;37.85;15.27;;;;;;;-144.87;100.00;61487.56;4986278;28;20383;-71
2023/06/08 00:26:36;;;;;;;37.97;16.25;;;;;;;-144.87;100.00;61487.56;5000474;28;20068;-72
2023/06/08 00:29:03;;;;;;;30.73;15.27;;;;;;;-144.87;100.00;61487.56;4981816;28;20049;-71
2023/06/08 00:31:29;;;;;;;31.13;14.80;;;;;;;-144.87;100.00;61487.56;4999232;28;20241;-72
2023/06/08 00:33:57;;;;;;;33.38;15.55;;;;;;;-144.87;100.00;61487.56;5000779;28;20035;-71
2023/06/08 00:36:23;;;;;;;38.00;15.73;;;;;;;-144.87;100.00;61487.56;5002062;28;20747;-70
2023/06/08 00:38:49;;;;;;;36.00;16.63;;;;;;;-144.87;100.00;61487.56;4985006;28;20038;-72
2023/06/08 00:41:15;;;;;;;42.13;16.27;;;;;;;-144.87;100.00;61487.56;5003393;28;20219;-70
2023/06/08 00:43:45;;;;;;;41.17;16.95;;;;;;;-144.87;100.00;61487.56;4988252;28;20475;-71
2023/06/08 00:46:13;;;;;;;33.33;17.30;;;;;;;-144.87;100.00;61487.56;4990779;28;20030;-73
2023/06/08 00:48:41;;;;;;;36.63;17.73;;;;;;;-144.87;100.00;61487.56;5010086;28;20513;-72
2023/06/08 00:51:07;;;;;;;39.25;17.20;;;;;;;-144.87;100.00;61487.56;4993012;28;20041;-71
2023/06/08 00:53:36;;;;;;;39.83;17.05;;;;;;;-144.87;100.00;61487.56;4993336;28;20634;-72
2023/06/08 00:56:03;;;;;;;34.05;16.30;;;;;;;-144.87;100.00;61487.56;4986040;28;20033;-72
2023/06/08 00:58:29;;;;;;;42.72;17.05;;;;;;;-144.87;100.00;61487.56;5018275;28;20069;-71
2023/06/08 01:00:59;;;;;;;37.28;16.45;;;;;;;-144.87;100.00;61487.56;5023080;28;20064;-70
2023/06/08 01:03:35;;;;;;;32.30;15.88;;;;;;;-144.87;100.00;61487.56;5022972;28;20037;-71
2023/06/08 01:06:08;;;;;;;32.17;15.93;;;;;;;-144.87;100.00;61487.56;5018647;28;20030;-69
2023/06/08 01:08:42;;;;;;;32.20;16.00;;;;;;;-144.87;100.00;61487.56;5028295;28;20118;-71
2023/06/08 01:11:21;;;;;;;31.48;16.23;;;;;;;-144.87;100.00;61487.56;5023169;28;20061;-71
2023/06/08 01:14:00;;;;;;;35.15;17.67;;;;;;;-144.87;100.00;61487.56;5025436;28;20060;-71
2023/06/08 01:16:31;;;;;;;30.00;16.25;;;;;;;-144.87;100.00;61487.56;5010230;28;20478;-72
2023/06/08 01:19:01;;;;;;;36.28;16.52;;;;;;;-144.87;100.00;61487.56;5008227;28;20038;-71
2023/06/08 01:21:46;;;;;;;35.23;16.10;;;;;;;-144.87;100.00;61487.56;5017810;28;20064;-71
2023/06/08 01:24:20;;;;;;;40.67;16.80;;;;;;;-144.87;100.00;61487.56;5022954;28;20041;-71
2023/06/08 01:26:50;;;;;;;39.15;17.75;;;;;;;-144.87;100.00;61487.56;5010523;28;20033;-71
2023/06/08 01:29:21;;;;;;;40.43;18.00;;;;;;;-144.87;100.00;61487.56;5004569;28;20042;-71
2023/06/08 01:31:48;;;;;;;40.17;18.05;;;;;;;-144.87;100.00;61487.56;5022025;28;20054;-71
2023/06/08 01:34:16;;;;;;;40.30;18.65;;;;;;;-144.87;100.00;61487.56;5007750;28;20065;-71
2023/06/08 01:37:01;;;;;;;36.15;18.33;;;;;;;-144.87;100.00;61487.56;5001707;28;20037;-71
2023/06/08 01:39:56;;;;;;;37.72;19.23;;;;;;;-144.87;100.00;61487.56;5020582;28;20037;-70
2023/06/08 01:42:24;;;;;;;42.30;19.27;;;;;;;-144.87;100.00;61487.56;5006871;28;20042;-72
2023/06/08 01:45:00;;;;;;;43.25;19.75;;;;;;;-144.87;100.00;61487.56;4984648;28;20229;-71
2023/06/08 01:47:36;;;;;;;34.10;18.20;;;;;;;-144.87;100.00;61487.56;4991077;28;20034;-71
2023/06/08 01:50:02;;;;;;;39.70;18.48;;;;;;;-144.87;100.00;61487.56;5006643;28;20044;-71
2023/06/08 01:52:29;;;;;;;43.10;19.25;;;;;;;-144.87;100.00;61487.56;5023310;28;20069;-71
2023/06/08 01:54:55;;;;;;;39.05;19.48;;;;;;;-144.87;100.00;61487.56;5005765;28;20029;-70
2023/06/08 01:57:22;;;;;;;43.15;21.80;;;;;;;-144.87;100.00;61487.56;5008932;28;20029;-71
2023/06/08 01:59:49;;;;;;;41.03;21.17;;;;;;;-144.87;100.00;61487.56;4987074;28;20038;-70
2023/06/08 02:02:15;;;;;;;40.83;19.30;;;;;;;-144.87;100.00;61487.56;4987020;28;20042;-71
2023/06/08 02:04:42;;;;;;;43.13;20.45;;;;;;;-144.87;100.00;61487.56;4972390;28;20057;-71
2023/06/08 02:07:09;;;;;;;36.40;19.85;;;;;;;-144.87;100.00;61487.56;4974738;28;20034;-71
2023/06/08 02:09:35;;;;;;;46.58;20.92;;;;;;;-144.87;100.00;61487.56;5001592;28;20042;-71
2023/06/08 02:12:06;;;;;;;44.53;20.58;;;;;;;-144.87;100.00;61487.56;4986741;28;20092;-71
2023/06/08 02:14:32;;;;;;;;;;;;;;;-144.87;100.00;61487.56;4981933;28;20065;-70
2023/06/08 02:17:00;;;;;;;46.35;22.05;;;;;;;-144.87;100.00;61487.56;5014933;28;20012;-70
2023/06/08 02:19:33;;;;;;;38.42;19.63;;;;;;;-144.87;100.00;61487.56;4978079;28;20034;-69
2023/06/08 02:22:00;;;;;;;43.75;21.23;;;;;;;-144.87;100.00;61487.56;4984140;28;20038;-71
2023/06/08 02:24:26;;;;;;;45.20;20.75;;;;;;;-144.87;100.00;61487.56;5004897;28;20030;-72
2023/06/08 02:26:54;;;;;;;40.85;21.15;;;;;;;-144.87;100.00;61487.56;5003679;28;20093;-71
2023/06/08 02:29:21;;;;;;;41.10;21.73;;;;;;;-144.87;100.00;61487.56;4991462;28;20026;-71
2023/06/08 02:31:48;;;;;;;42.78;21.00;;;;;;;-144.87;100.00;61487.56;5002780;28;20116;-71
2023/06/08 02:34:15;;;;;;;38.67;20.92;;;;;;;-144.87;100.00;61487.56;5000164;28;20085;-71
2023/06/08 02:36:42;;;;;;;44.40;20.88;;;;;;;-144.87;100.00;61487.56;4988287;28;20041;-71
2023/06/08 02:39:09;;;;;;;41.90;21.35;;;;;;;-144.87;100.00;61487.56;4985473;28;20101;-71
2023/06/08 02:41:36;;;;;;;47.40;22.58;;;;;;;-144.87;100.00;61487.56;4984460;28;20065;-71
2023/06/08 02:44:02;;;;;;;46.70;22.58;;;;;;;-144.87;100.00;61487.56;4998584;28;20054;-70
2023/06/08 02:46:28;;;;;;;45.95;22.73;;;;;;;-144.87;100.00;61487.56;4967058;28;20078;-70
2023/06/08 02:48:55;;;;;;;48.58;23.20;;;;;;;-144.87;100.00;61487.56;4970530;28;20035;-70
2023/06/08 02:51:24;;;;;;;37.80;21.30;;;;;;;-144.87;100.00;61487.56;4996346;28;20030;-71
2023/06/08 02:53:50;;;;;;;43.65;22.70;;;;;;;-144.87;100.00;61487.56;4981937;28;20049;-71
2023/06/08 02:56:17;;;;;;;43.10;22.20;;;;;;;-144.87;100.00;61487.56;5000141;28;20072;-71
2023/06/08 02:58:46;;;;;;;42.97;22.63;;;;;;;-144.87;100.00;61487.56;4982529;28;20038;-70
2023/06/08 03:01:16;;;;;;;43.33;21.70;;;;;;;-144.87;100.00;61487.56;4997018;28;20104;-71
2023/06/08 03:03:51;;;;;;;46.45;22.77;;;;;;;-144.87;100.00;61487.56;5017574;28;20121;-70
2023/06/08 03:06:26;;;;;;;48.65;23.13;;;;;;;-144.87;100.00;61487.56;5006047;28;20041;-72
2023/06/08 03:08:57;;;;;;;45.08;23.40;;;;;;;-144.87;100.00;61487.56;5005777;28;20045;-71
2023/06/08 03:11:25;;;;;;;41.47;22.65;;;;;;;-144.87;100.00;61487.56;4991748;28;20121;-71
2023/06/08 03:13:51;;;;;;;43.47;23.10;;;;;;;-144.87;100.00;61487.56;5006723;28;20037;-70
2023/06/08 03:16:20;;;;;;;42.88;22.73;;;;;;;-144.87;100.00;61487.56;5000204;28;20034;-70
2023/06/08 03:18:47;;;;;;;46.97;23.35;;;;;;;-144.87;100.00;61487.56;5001402;28;20060;-71
2023/06/08 03:21:13;;;;;;;44.42;21.75;;;;;;;-144.87;100.00;61487.56;4991921;28;20040;-70
2023/06/08 03:23:41;;;;;;;40.53;22.73;;;;;;;-144.87;100.00;61487.56;4990676;28;20041;-73
2023/06/08 03:26:07;;;;;;;47.92;23.48;;;;;;;-144.87;100.00;61487.56;4954268;28;20107;-71
2023/06/08 03:28:34;;;;;;;44.30;23.65;;;;;;;-144.87;100.00;61487.56;4994581;28;20128;-71
2023/06/08 03:31:01;;;;;;;47.25;23.42;;;;;;;-144.87;100.00;61487.56;4985693;28;20530;-71
2023/06/08 03:33:36;;;;;;;49.20;22.55;;;;;;;-144.87;100.00;61487.56;4978873;28;20045;-71
2023/06/08 03:36:04;;;;;;;45.88;23.42;;;;;;;-144.87;100.00;61487.56;4980068;28;20045;-70
2023/06/08 03:38:42;;;;;;;45.58;23.27;;;;;;;-144.87;100.00;61487.56;5000828;28;20054;-71
2023/06/08 03:41:13;;;;;;;46.47;23.63;;;;;;;-144.87;100.00;61487.56;4983521;28;20534;-71
2023/06/08 03:43:39;;;;;;;45.50;22.55;;;;;;;-144.87;100.00;61487.56;4993779;28;20040;-71
2023/06/08 03:46:06;;;;;;;41.28;24.20;;;;;;;-144.87;100.00;61487.56;4965973;28;20368;-70
2023/06/08 03:48:33;;;;;;;43.75;22.65;;;;;;;-144.87;100.00;61487.56;4968197;28;20137;-70
2023/06/08 03:51:01;;;;;;;51.17;24.38;;;;;;;-144.87;100.00;61487.56;4986237;28;20046;-71
2023/06/08 03:53:28;;;;;;;48.80;24.40;;;;;;;-144.87;100.00;61487.56;4969728;28;20169;-70
2023/06/08 03:55:54;;;;;;;46.72;23.90;;;;;;;-144.87;100.00;61487.56;4979483;28;20058;-69
2023/06/08 03:58:23;;;;;;;48.03;23.27;;;;;;;-144.87;100.00;61487.56;4966284;28;20056;-71
2023/06/08 04:00:49;;;;;;;44.25;24.58;;;;;;;-144.87;100.00;61487.56;4989481;28;20049;-70
2023/06/08 04:03:16;;;;;;;43.10;22.60;;;;;;;-144.87;100.00;61487.56;5002355;28;20106;-70
2023/06/08 04:05:42;;;;;;;43.70;23.30;;;;;;;-144.87;100.00;61487.56;5007544;28;20030;-71
2023/06/08 04:08:08;;;;;;;43.25;22.67;;;;;;;-144.87;100.00;61487.56;4993878;28;20066;-71
2023/06/08 04:10:35;;;;;;;44.58;22.67;;;;;;;-144.87;100.00;61487.56;4994901;28;20325;-71
2023/06/08 04:13:01;;;;;;;40.13;22.90;;;;;;;-144.87;100.00;61487.56;5018961;28;20082;-70
2023/06/08 04:15:27;;;;;;;41.00;22.63;;;;;;;-144.87;100.00;61487.56;5001926;28;20056;-72
2023/06/08 04:17:56;;;;;;;40.95;22.95;;;;;;;-144.87;100.00;61487.56;5014066;28;20060;-71
2023/06/08 04:20:24;;;;;;;44.00;22.65;;;;;;;-144.87;100.00;61487.56;5011480;28;20503;-72
2023/06/08 04:22:52;;;;;;;43.45;23.08;;;;;;;-144.87;100.00;61487.56;5002951;28;20037;-71
2023/06/08 04:25:24;;;;;;;45.25;23.10;;;;;;;-144.87;100.00;61487.56;4992662;28;20765;-71
2023/06/08 04:27:52;;;;;;;47.78;22.90;;;;;;;-144.87;100.00;61487.56;5000681;28;20435;-71
2023/06/08 04:30:19;;;;;;;47.45;23.35;;;;;;;-144.87;100.00;61487.56;4994051;28;20092;-71
2023/06/08 04:32:46;;;;;;;43.40;23.02;;;;;;;-144.87;100.00;61487.56;4985713;28;20093;-71
2023/06/08 04:35:12;;;;;;;36.65;21.90;;;;;;;-144.87;100.00;61487.56;4992679;28;20042;-71
2023/06/08 04:37:41;;;;;;;37.03;21.67;;;;;;;-144.87;100.00;61487.56;4973487;28;20041;-71
2023/06/08 04:40:10;;;;;;;42.28;22.35;;;;;;;-144.87;100.00;61487.56;4997811;28;20385;-71
2023/06/08 04:42:39;;;;;;;41.58;23.00;;;;;;;-144.87;100.00;61487.56;5014953;28;20048;-71
2023/06/08 04:45:08;;;;;;;45.50;22.83;;;;;;;-144.87;100.00;61487.56;4985691;28;20065;-71
2023/06/08 04:47:35;;;;;;;45.95;22.48;;;;;;;-144.87;100.00;61487.56;4991667;28;20125;-71
2023/06/08 04:50:02;;;;;;;37.90;21.92;;;;;;;-144.87;100.00;61487.56;5010082;28;20060;-71
2023/06/08 04:52:30;;;;;;;42.35;21.50;;;;;;;-144.87;100.00;61487.56;4994829;28;20046;-72
2023/06/08 04:55:01;;;;;;;41.40;21.23;;;;;;;-144.87;100.00;61487.56;5001550;28;20046;-71
2023/06/08 04:57:27;;;;;;;41.45;20.48;;;;;;;-144.87;100.00;61487.56;4996413;28;20042;-73
2023/06/08 04:59:54;;;;;;;47.00;20.90;;;;;;;-144.87;100.00;61487.56;5000105;28;20127;-71
2023/06/08 05:02:20;;;;;;;39.20;20.38;;;;;;;-144.87;100.00;61487.56;4973617;28;20193;-70
2023/06/08 05:04:46;;;;;;;37.38;19.92;;;;;;;-144.87;100.00;61487.56;4972226;28;20501;-69
2023/06/08 05:07:12;;;;;;;38.90;19.30;;;;;;;-144.87;100.00;61487.56;5001506;28;20037;-71
2023/06/08 05:09:39;;;;;;;32.78;18.02;;;;;;;-144.87;100.00;61487.56;4997671;28;20049;-71
2023/06/08 05:12:06;;;;;;;37.33;17.75;;;;;;;-144.87;100.00;61487.56;4971870;28;20129;-68
2023/06/08 05:14:32;;;;;;;36.88;18.15;;;;;;;-144.87;100.00;61487.56;4952691;28;20041;-70
2023/06/08 05:16:59;;;;;;;34.17;19.45;;;;;;;-144.87;100.00;61487.56;5003808;28;20096;-69
2023/06/08 05:19:25;;;;;;;38.13;18.75;;;;;;;-144.87;100.00;61487.56;4992756;28;20093;-70
2023/06/08 05:21:52;;;;;;;31.45;17.00;;;;;;;-144.87;100.00;61487.56;5007011;28;20033;-71
2023/06/08 05:24:18;;;;;;;32.40;16.48;;;;;;;-144.87;100.00;61487.56;4981689;28;20145;-70
2023/06/08 05:26:45;;;;;;;28.08;15.77;;;;;;;-144.87;100.00;61487.56;5002074;28;20561;-76
2023/06/08 05:29:12;;;;;;;24.77;15.70;;;;;;;-144.87;100.00;61487.56;4963720;28;20133;-72
2023/06/08 05:31:39;;;;;;;26.92;15.93;;;;;;;-144.87;100.00;61487.56;5002565;28;20045;-71
2023/06/08 05:34:05;;;;;;;26.83;16.40;;;;;;;-144.87;100.00;61487.56;4995984;28;20081;-73
2023/06/08 05:36:31;;;;;;;26.30;14.90;;;;;;;-144.87;100.00;61487.56;5001889;28;20478;-72
2023/06/08 05:39:03;;;;;;;25.45;14.45;;;;;;;-144.87;100.00;61487.56;5004171;28;20068;-72
2023/06/08 05:41:30;;;;;;;30.75;14.48;;;;;;;-144.87;100.00;61487.56;5001523;28;20042;-72
2023/06/08 05:43:56;;;;;;;25.05;13.50;;;;;;;-144.87;100.00;61487.56;4973890;28;20041;-75
2023/06/08 05:46:22;;;;;;;24.65;14.10;;;;;;;-144.87;100.00;61487.56;5011973;28;20034;-72
2023/06/08 05:48:49;;;;;;;26.50;14.05;;;;;;;-144.87;100.00;61487.56;4995908;28;20046;-73
2023/06/08 05:51:15;;;;;;;24.50;13.23;;;;;;;-144.87;100.00;61487.56;4992632;28;20715;-72
2023/06/08 05:53:42;;;;;;;23.45;13.32;;;;;;;-144.87;100.00;61487.56;5013122;28;20046;-70
2023/06/08 05:56:08;;;;;;;24.45;12.80;;;;;;;-144.87;100.00;61487.56;4995112;28;20165;-70
2023/06/08 05:58:34;;;;;;;27.20;12.48;;;;;;;-144.87;100.00;61487.56;4996460;28;20042;-73
2023/06/08 06:01:04;;;;;;;31.55;12.10;;;;;;;-144.87;100.00;61487.56;5012502;28;20048;-72
2023/06/08 06:03:31;;;;;;;21.92;11.63;;;;;;;-144.87;100.00;61487.56;5005226;28;20038;-70
2023/06/08 06:06:01;;;;;;;19.63;10.45;;;;;;;-144.87;100.00;61487.56;4995573;28;20121;-70
2023/06/08 06:08:27;;;;;;;21.73;11.40;;;;;;;-144.87;100.00;61487.56;5009572;28;20087;-70
2023/06/08 06:10:54;;;;;;;20.48;11.32;;;;;;;-144.87;100.00;61487.56;5006933;28;20058;-70
2023/06/08 06:13:21;;;;;;;22.92;11.30;;;;;;;-144.87;100.00;61487.56;5012043;28;20038;-70
2023/06/08 06:15:47;;;;;;;20.55;10.25;;;;;;;-144.87;100.00;61487.56;4991823;28;20482;-75
2023/06/08 06:18:14;;;;;;;19.55;11.00;;;;;;;-144.87;100.00;61487.56;4972392;28;20057;-70
2023/06/08 06:20:40;;;;;;;22.77;10.75;;;;;;;-144.87;100.00;61487.56;4959676;28;20041;-71
2023/06/08 06:23:07;;;;;;;20.60;11.52;;;;;;;-144.87;100.00;61487.56;4993932;28;20044;-70
2023/06/08 06:25:36;;;;;;;23.90;11.87;;;;;;;-144.87;100.00;61487.56;4974396;28;20038;-71
2023/06/08 06:28:03;;;;;;;24.40;12.07;;;;;;;-144.87;100.00;61487.56;4963106;28;20039;-71
2023/06/08 06:30:30;;;;;;;28.02;12.30;;;;;;;-144.87;100.00;61487.56;4993025;28;20045;-70
2023/06/08 06:32:56;;;;;;;26.48;11.85;;;;;;;-144.87;100.00;61487.56;4991817;28;20029;-70
2023/06/08 06:35:23;;;;;;;34.72;12.23;;;;;;;-144.87;100.00;61487.56;5011832;28;20301;-70
2023/06/08 06:37:50;;;;;;;23.75;11.95;;;;;;;-144.87;100.00;61487.56;5011109;28;20038;-70
2023/06/08 06:40:17;;;;;;;30.95;12.30;;;;;;;-144.87;100.00;61487.56;5011057;28;20042;-70
2023/06/08 06:42:43;;;;;;;23.58;11.10;;;;;;;-144.87;100.00;61487.56;4993694;28;20108;-71
2023/06/08 06:45:25;;;;;;;25.55;12.65;;;;;;;-144.87;100.00;61487.56;4995425;28;20133;-70
2023/06/08 06:47:51;;;;;;;19.40;11.43;;;;;;;-144.87;100.00;61487.56;4989427;28;20081;-71
2023/06/08 06:50:17;;;;;;;22.50;11.55;;;;;;;-144.87;100.00;61487.56;4974774;28;20110;-71
2023/06/08 06:52:43;;;;;;;24.20;11.77;;;;;;;-144.87;100.00;61487.56;4976726;28;20030;-71
2023/06/08 06:55:10;;;;;;;26.20;12.30;;;;;;;-144.87;100.00;61487.56;4993227;28;20153;-71
2023/06/08 06:57:37;;;;;;;25.25;11.65;;;;;;;-144.87;100.00;61487.56;5010992;28;20060;-71
2023/06/08 07:00:10;;;;;;;28.73;12.70;;;;;;;-144.87;100.00;61487.56;4997083;28;20041;-71
2023/06/08 07:02:37;;;;;;;22.55;11.10;;;;;;;-144.87;100.00;61487.56;5030190;28;20045;-71
2023/06/08 07:05:08;;;;;;;21.38;11.68;;;;;;;-144.87;100.00;61487.56;5030887;28;20405;-71
2023/06/08 07:07:35;;;;;;;19.13;11.10;;;;;;;-144.87;100.00;61487.56;5030960;28;20069;-69
2023/06/08 07:10:01;;;;;;;27.35;11.68;;;;;;;-144.87;100.00;61487.56;5012868;28;20029;-70
2023/06/08 07:12:30;;;;;;;25.50;11.30;;;;;;;-144.87;100.00;61487.56;5013269;28;20060;-70
2023/06/08 07:14:56;;;;;;;20.10;11.05;;;;;;;-144.87;100.00;61487.56;5009044;28;20068;-71
2023/06/08 07:17:22;;;;;;;17.50;9.90;;;;;;;-144.87;100.00;61487.56;5012762;28;20056;-70
2023/06/08 07:19:51;;;;;;;21.60;10.00;;;;;;;-144.87;100.00;61487.56;5030428;28;20042;-71
2023/06/08 07:22:17;;;;;;;22.40;10.32;;;;;;;-144.87;100.00;61487.56;4996976;28;20052;-71
2023/06/08 07:24:46;;;;;;;24.70;10.82;;;;;;;-144.87;100.00;61487.56;5030572;28;20124;-69
2023/06/08 07:27:12;;;;;;;22.55;10.27;;;;;;;-144.87;100.00;61487.56;5030997;28;20121;-70
2023/06/08 07:29:39;;;;;;;22.63;10.48;;;;;;;-144.87;100.00;61487.56;5006922;28;20037;-70
2023/06/08 07:32:06;;;;;;;24.42;9.18;;;;;;;-144.87;100.00;61487.56;5012367;28;20060;-69
2023/06/08 07:34:33;;;;;;;17.17;8.85;;;;;;;-144.87;100.00;61487.56;5043823;28;20052;-69
2023/06/08 07:36:59;;;;;;;19.52;8.63;;;;;;;-144.87;100.00;61487.56;5011954;28;20063;-70
2023/06/08 07:39:25;;;;;;;17.02;8.98;;;;;;;-144.87;100.00;61487.56;5013998;28;20049;-70
2023/06/08 07:41:52;;;;;;;19.48;9.52;;;;;;;-144.87;100.00;61487.56;5026315;28;20059;-71
2023/06/08 07:44:18;;;;;;;21.00;9.38;;;;;;;-144.87;100.00;61487.56;5020088;28;20033;-70
2023/06/08 07:46:44;;;;;;;18.33;8.77;;;;;;;-144.87;100.00;61487.56;5020620;28;20029;-71
2023/06/08 07:49:11;;;;;;;15.25;8.30;;;;;;;-144.87;100.00;61487.56;5036358;28;20030;-71
2023/06/08 07:51:37;;;;;;;17.10;8.60;;;;;;;-144.87;100.00;61487.56;5000592;28;20060;-70
2023/06/08 07:54:04;;;;;;;19.60;8.20;;;;;;;-144.87;100.00;61487.56;5033629;28;20046;-71
2023/06/08 07:56:31;;;;;;;17.63;8.00;;;;;;;-144.87;100.00;61487.56;5006606;28;20037;-71
2023/06/08 07:58:57;;;;;;;16.92;8.00;;;;;;;-144.87;100.00;61487.56;5033141;28;20042;-72
2023/06/08 08:01:23;;;;;;;22.90;8.23;;;;;;;-144.87;100.00;61487.56;5031867;28;20052;-70
2023/06/08 08:03:51;;;;;;;17.77;7.97;;;;;;;-144.87;100.00;61487.56;5033045;28;20037;-70
2023/06/08 08:06:17;;;;;;;23.10;8.75;;;;;;;-144.87;100.00;61487.56;5034100;28;20080;-71
2023/06/08 08:08:43;;;;;;;15.82;8.15;;;;;;;-144.87;100.00;61487.56;4999783;28;20080;-71
2023/06/08 08:11:10;;;;;;;15.05;8.38;;;;;;;-144.87;100.00;61487.56;5016513;28;20040;-71
2023/06/08 08:13:37;;;;;;;15.07;8.13;;;;;;;-144.87;100.00;61487.56;5016250;28;20083;-72
2023/06/08 08:16:04;;;;;;;18.00;8.40;;;;;;;-144.87;100.00;61487.56;5016255;28;20044;-70
2023/06/08 08:18:31;;;;;;;13.63;8.57;;;;;;;-144.87;100.00;61487.56;5023679;28;20042;-71
2023/06/08 08:20:58;;;;;;;15.82;8.43;;;;;;;-144.87;100.00;61487.56;5033091;28;20065;-70
2023/06/08 08:23:25;;;;;;;18.98;8.77;;;;;;;-144.87;100.00;61487.56;5015448;28;20036;-71
2023/06/08 08:25:51;;;;;;;21.02;8.35;;;;;;;-144.87;100.00;61487.56;5033616;28;20513;-70
2023/06/08 08:28:18;;;;;;;18.45;8.85;;;;;;;-144.87;100.00;61487.56;5016079;28;20049;-71
2023/06/08 08:30:44;;;;;;;15.90;8.50;;;;;;;-144.87;100.00;61487.56;5033780;28;20116;-71
2023/06/08 08:33:12;;;;;;;15.60;8.02;;;;;;;-144.87;100.00;61487.56;5014964;28;20068;-71
2023/06/08 08:35:38;;;;;;;25.23;8.57;;;;;;;-144.87;100.00;61487.56;5033573;28;20048;-71
2023/06/08 08:38:05;;;;;;;21.02;8.57;;;;;;;-144.87;100.00;61487.56;5033310;28;20041;-73
2023/06/08 08:40:31;;;;;;;21.80;8.43;;;;;;;-144.87;100.00;61487.56;4999205;28;20037;-71
2023/06/08 08:43:12;;;;;;;22.88;8.32;;;;;;;-144.87;100.00;61487.56;5033200;28;20033;-71
2023/06/08 08:45:42;;;;;;;19.15;8.63;;;;;;;-144.87;100.00;61487.56;5028672;28;20038;-71
2023/06/08 08:48:12;;;;;;;16.33;8.68;;;;;;;-144.87;100.00;61487.56;5014009;28;20034;-70
2023/06/08 08:50:40;;;;;;;18.35;8.30;;;;;;;-144.87;100.00;61487.56;5032402;28;20030;-71
2023/06/08 08:53:09;;;;;;;21.27;8.93;;;;;;;-144.87;100.00;61487.56;5032402;28;20045;-70
2023/06/08 08:55:36;;;;;;;15.13;8.95;;;;;;;-144.87;100.00;61487.56;5015036;28;20049;-71
2023/06/08 08:58:03;;;;;;;14.88;9.10;;;;;;;-144.87;100.00;61487.56;5014780;28;20095;-73
2023/06/08 09:00:34;;;;;;;16.73;8.13;;;;;;;-144.87;100.00;61487.56;5030037;28;20057;-71
2023/06/08 09:03:01;;;;;;;20.25;9.15;;;;;;;-144.87;100.00;61487.56;5032259;28;20055;-72
2023/06/08 09:05:28;;;;;;;21.20;8.98;;;;;;;-144.87;100.00;61487.56;4998553;28;20041;-71
2023/06/08 09:07:55;;;;;;;13.63;8.50;;;;;;;-144.87;100.00;61487.56;5015082;28;20033;-71
2023/06/08 09:10:25;;;;;;;17.70;8.90;;;;;;;-144.87;100.00;61487.56;5014989;28;20040;-70
2023/06/08 09:12:53;;;;;;;18.05;9.30;;;;;;;-144.87;100.00;61487.56;5033435;28;20112;-71
2023/06/08 09:15:31;;;;;;;21.38;9.25;;;;;;;-144.87;100.00;61487.56;5015871;28;20060;-70
2023/06/08 09:18:02;;;;;;;22.70;10.30;;;;;;;-144.87;100.00;61487.56;5017362;28;20440;-71
2023/06/08 09:20:33;;;;;;;22.27;10.25;;;;;;;-144.87;100.00;61487.56;5033274;28;20041;-72
2023/06/08 09:23:14;;;;;;;;;;;;;;;-144.87;100.00;61487.56;5038486;28;20041;-70
2023/06/08 09:25:41;;;;;;;19.08;9.05;;;;;;;-144.87;100.00;61487.56;5020416;28;19936;-70
2023/06/08 09:28:28;;;;;;;20.08;9.55;;;;;;;-144.87;100.00;61487.56;5021859;28;20156;-72
2023/06/08 09:30:57;;;;;;;27.15;9.82;;;;;;;-144.87;100.00;61487.56;5030653;28;20066;-72
2023/06/08 09:33:29;;;;;;;17.95;9.82;;;;;;;-144.87;100.00;61487.56;5023081;28;20166;-73
2023/06/08 09:35:58;;;;;;;20.95;10.32;;;;;;;-144.87;100.00;61487.56;4999865;28;20486;-72
2023/06/08 09:38:29;;;;;;;23.42;10.85;;;;;;;-144.87;100.00;61487.56;5032776;28;20045;-72
2023/06/08 09:41:21;;;;;;;20.92;10.30;;;;;;;-144.87;100.00;61487.56;5032590;28;20029;-70
2023/06/08 09:43:49;;;;;;;20.02;11.25;;;;;;;-144.87;100.00;61487.56;5031065;28;20045;-70
2023/06/08 09:46:35;;;;;;;19.52;10.75;;;;;;;-144.87;100.00;61487.56;5014695;28;20033;-71
2023/06/08 09:49:05;;;;;;;23.17;10.60;;;;;;;-144.87;100.00;61487.56;5014575;28;20045;-73
2023/06/08 09:51:34;;;;;;;19.98;9.63;;;;;;;-144.87;100.00;61487.56;5031514;28;20035;-71
2023/06/08 09:54:02;;;;;;;18.33;10.85;;;;;;;-144.87;100.00;61487.56;4994206;28;20487;-71
2023/06/08 09:56:29;;;;;;;19.23;9.57;;;;;;;-144.87;100.00;61487.56;5027370;28;20037;-71
2023/06/08 09:58:56;;;;;;;19.40;10.07;;;;;;;-144.87;100.00;61487.56;5035881;28;20068;-71
2023/06/08 10:01:43;;;;;;;19.08;10.30;;;;;;;-144.87;100.00;61487.56;5017209;28;20042;-71
2023/06/08 10:04:22;;;;;;;17.27;9.93;;;;;;;-144.87;100.00;61487.56;4990685;28;20034;-71
2023/06/08 10:06:54;;;;;;;15.95;9.55;;;;;;;-144.87;100.00;61487.56;4974863;28;20125;-69
2023/06/08 10:09:24;;;;;;;19.65;9.35;;;;;;;-144.87;100.00;61487.56;4997581;28;20034;-71
2023/06/08 10:11:51;;;;;;;18.05;9.73;;;;;;;-144.87;100.00;61487.56;4994004;28;20026;-72
2023/06/08 10:14:17;;;;;;;19.08;9.90;;;;;;;-144.87;100.00;61487.56;4993777;28;20030;-71
2023/06/08 10:16:44;;;;;;;18.20;9.18;;;;;;;-144.87;100.00;61487.56;4978407;28;20037;-70
2023/06/08 10:19:11;;;;;;;20.02;9.18;;;;;;;-144.87;100.00;61487.56;4994430;28;20073;-71
2023/06/08 10:21:38;;;;;;;15.63;9.48;;;;;;;-144.87;100.00;61487.56;5012478;28;20061;-72
2023/06/08 10:24:05;;;;;;;18.80;9.48;;;;;;;-144.87;100.00;61487.56;4960903;28;20113;-70
2023/06/08 10:26:31;;;;;;;20.42;9.32;;;;;;;-144.87;100.00;61487.56;4993328;28;20042;-72
2023/06/08 10:29:06;;;;;;;22.55;8.30;;;;;;;-144.87;100.00;61487.56;4978657;28;20077;-70
2023/06/08 10:31:37;;;;;;;17.42;8.43;;;;;;;-144.87;100.00;61487.56;4994377;28;20085;-71
2023/06/08 10:34:07;;;;;;;;;;;;;;;-144.87;100.00;61487.56;4986203;28;20458;-71
2023/06/08 10:36:39;;;;;;;15.27;8.70;;;;;;;-144.87;100.00;61487.56;4988408;28;19949;-71
2023/06/08 10:39:12;;;;;;;17.08;8.50;;;;;;;-144.87;100.00;61487.56;5006258;28;20050;-69
2023/06/08 10:41:53;;;;;;;15.90;8.52;;;;;;;-144.87;100.00;61487.56;4985308;28;20041;-70
2023/06/08 10:44:25;;;;;;;;;;;;;;;-144.87;100.00;61487.56;5010311;28;20022;-70
2023/06/08 10:47:08;;;;;;;13.88;7.70;;;;;;;-144.87;100.00;61487.56;4991952;28;19913;-69
2023/06/08 10:49:36;;;;;;;14.75;8.40;;;;;;;-144.87;100.00;61487.56;4974617;28;20044;-71
2023/06/08 10:52:06;;;;;;;16.55;8.82;;;;;;;-144.87;100.00;61487.56;4985688;28;20026;-72
2023/06/08 10:54:57;;;;;;;15.60;7.70;;;;;;;-144.87;100.00;61487.56;5012772;28;20041;-70
2023/06/08 10:57:46;;;;;;;16.15;7.32;;;;;;;-144.87;100.00;61487.56;5008045;28;20049;-70
2023/06/08 11:00:23;;;;;;;13.00;7.57;;;;;;;-144.87;100.00;61487.56;4995324;28;20046;-70
2023/06/08 11:02:50;;;;;;;16.10;6.93;;;;;;;-144.87;100.00;61487.56;4997714;28;20052;-71
2023/06/08 11:05:17;;;;;;;15.95;7.68;;;;;;;-144.87;100.00;61487.56;4980167;28;20053;-71